createdAt,value
2023-05-21T00:02:30.245Z,59.74
2023-05-21T00:04:57.977Z,59.74
2023-05-21T00:07:25.566Z,59.94
2023-05-21T00:09:53.122Z,60.08
2023-05-21T00:12:20.656Z,60.13
2023-05-21T00:14:48.199Z,60.20
2023-05-21T00:17:16.067Z,60.32
2023-05-21T00:19:43.577Z,60.55
2023-05-21T00:22:11.228Z,60.86
2023-05-21T00:24:38.951Z,60.97
2023-05-21T00:27:06.496Z,61.25
2023-05-21T00:29:34.953Z,61.39
2023-05-21T00:32:03.181Z,61.66
2023-05-21T00:34:30.851Z,61.96
2023-05-21T00:36:58.617Z,61.98
2023-05-21T00:39:26.529Z,61.92
2023-05-21T00:41:54.191Z,62.26
2023-05-21T00:44:22.178Z,62.12
2023-05-21T00:46:53.749Z,61.94
2023-05-21T00:49:24.639Z,62.14
2023-05-21T00:51:53.143Z,62.24
2023-05-21T00:54:21.465Z,62.37
2023-05-21T00:56:49.085Z,62.44
2023-05-21T00:59:16.831Z,62.57
2023-05-21T01:01:45.685Z,62.63
2023-05-21T01:04:13.404Z,62.46
2023-05-21T01:06:42.692Z,62.32
2023-05-21T01:09:10.558Z,62.46
2023-05-21T01:11:43.030Z,62.74
2023-05-21T01:14:11.169Z,62.66
2023-05-21T01:16:39.401Z,62.74
2023-05-21T01:19:07.692Z,62.82
2023-05-21T01:21:36.094Z,62.67
2023-05-21T01:24:05.741Z,62.83
2023-05-21T01:26:38.831Z,62.68
2023-05-21T01:29:06.844Z,62.43
2023-05-21T01:31:39.240Z,62.40
2023-05-21T01:34:06.842Z,62.37
2023-05-21T01:36:38.210Z,62.37
2023-05-21T01:39:09.653Z,62.37
2023-05-21T01:41:38.645Z,62.43
2023-05-21T01:44:06.205Z,62.43
2023-05-21T01:46:33.915Z,62.18
2023-05-21T01:49:01.388Z,61.99
2023-05-21T01:51:29.084Z,61.94
2023-05-21T01:53:56.530Z,62.42
2023-05-21T01:56:25.941Z,62.18
2023-05-21T01:58:56.839Z,62.38
2023-05-21T02:01:24.941Z,62.40
2023-05-21T02:03:52.823Z,62.38
2023-05-21T02:06:20.304Z,62.23
2023-05-21T02:08:48.450Z,62.42
2023-05-21T02:11:16.352Z,62.67
2023-05-21T02:13:46.120Z,62.84
2023-05-21T02:16:15.865Z,62.78
2023-05-21T02:18:44.081Z,62.54
2023-05-21T02:21:11.608Z,62.68
2023-05-21T02:23:39.090Z,62.80
2023-05-21T02:26:06.886Z,62.96
2023-05-21T02:28:36.358Z,63.04
2023-05-21T02:31:04.207Z,63.28
2023-05-21T02:33:32.498Z,63.34
2023-05-21T02:36:00.226Z,63.94
2023-05-21T02:38:28.059Z,64.18
2023-05-21T02:40:55.927Z,64.07
2023-05-21T02:43:24.297Z,64.33
2023-05-21T02:45:52.149Z,64.27
2023-05-21T02:48:20.376Z,64.38
2023-05-21T02:50:47.779Z,64.71
2023-05-21T02:53:15.332Z,64.13
2023-05-21T02:55:43.116Z,64.15
2023-05-21T02:58:13.573Z,64.20
2023-05-21T03:00:41.892Z,64.22
2023-05-21T03:03:09.419Z,64.07
2023-05-21T03:05:37.167Z,63.98
2023-05-21T03:08:05.051Z,64.13
2023-05-21T03:10:33.197Z,64.41
2023-05-21T03:13:01.356Z,64.18
2023-05-21T03:15:33.352Z,64.46
2023-05-21T03:18:00.877Z,64.72
2023-05-21T03:20:28.999Z,65.64
2023-05-21T03:22:56.657Z,65.36
2023-05-21T03:25:25.395Z,65.18
2023-05-21T03:27:54.689Z,65.74
2023-05-21T03:30:46.315Z,66.03
2023-05-21T03:33:32.818Z,66.62
2023-05-21T03:36:02.485Z,66.53
2023-05-21T03:38:34.919Z,66.92
2023-05-21T03:41:04.064Z,66.88
2023-05-21T03:43:31.651Z,66.68
2023-05-21T03:45:59.339Z,66.54
2023-05-21T03:48:55.791Z,66.58
2023-05-21T03:51:25.020Z,66.35
2023-05-21T03:53:52.862Z,66.63
2023-05-21T03:56:21.702Z,66.65
2023-05-21T03:58:49.304Z,66.82
2023-05-21T04:01:17.847Z,66.73
2023-05-21T04:03:45.966Z,66.88
2023-05-21T04:06:16.070Z,66.23
2023-05-21T04:08:44.594Z,66.39
2023-05-21T04:11:12.186Z,66.72
2023-05-21T04:13:39.776Z,67.32
2023-05-21T04:16:09.485Z,66.78
2023-05-21T04:18:37.190Z,67.40
2023-05-21T04:21:05.235Z,67.23
2023-05-21T04:23:33.465Z,66.86
2023-05-21T04:26:03.141Z,66.58
2023-05-21T04:28:31.030Z,66.83
2023-05-21T04:30:58.783Z,66.44
2023-05-21T04:33:26.360Z,66.54
2023-05-21T04:35:53.930Z,66.35
2023-05-21T04:38:21.769Z,66.55
2023-05-21T04:40:52.431Z,66.65
2023-05-21T04:43:26.602Z,66.20
2023-05-21T04:45:56.730Z,65.67
2023-05-21T04:48:27.165Z,65.25
2023-05-21T04:50:56.124Z,64.87
2023-05-21T04:53:26.308Z,64.49
2023-05-21T04:55:54.067Z,64.30
2023-05-21T04:58:21.794Z,64.62
2023-05-21T05:00:51.955Z,64.35
2023-05-21T05:03:19.705Z,64.08
2023-05-21T05:05:47.530Z,63.30
2023-05-21T05:08:16.139Z,63.40
2023-05-21T05:10:44.024Z,63.41
2023-05-21T05:13:12.686Z,62.99
2023-05-21T05:15:40.461Z,62.97
2023-05-21T05:18:09.295Z,63.07
2023-05-21T05:20:36.745Z,63.54
2023-05-21T05:23:04.416Z,63.60
2023-05-21T05:25:32.528Z,63.21
2023-05-21T05:28:00.354Z,63.12
2023-05-21T05:30:28.088Z,63.32
2023-05-21T05:33:01.101Z,62.54
2023-05-21T05:35:28.823Z,62.17
2023-05-21T05:37:57.167Z,61.87
2023-05-21T05:40:24.936Z,62.56
2023-05-21T05:42:52.898Z,62.30
2023-05-21T05:45:20.649Z,62.54
2023-05-21T05:47:48.569Z,62.60
2023-05-21T05:50:16.407Z,62.45
2023-05-21T05:52:44.060Z,62.65
2023-05-21T05:55:12.643Z,61.98
2023-05-21T05:57:40.575Z,61.56
2023-05-21T06:00:13.775Z,61.68
2023-05-21T06:02:44.867Z,60.94
2023-05-21T06:05:12.774Z,60.30
2023-05-21T06:07:41.313Z,60.77
2023-05-21T06:10:09.204Z,61.37
2023-05-21T06:12:36.811Z,61.09
2023-05-21T06:15:05.911Z,62.06
2023-05-21T06:17:34.355Z,62.14
2023-05-21T06:20:02.816Z,61.62
2023-05-21T06:22:30.613Z,61.65
2023-05-21T06:24:58.999Z,61.63
2023-05-21T06:27:26.489Z,61.89
2023-05-21T06:29:54.392Z,62.16
2023-05-21T06:32:23.159Z,62.17
2023-05-21T06:34:51.045Z,62.94
2023-05-21T06:37:25.928Z,62.69
2023-05-21T06:39:54.337Z,63.01
2023-05-21T06:42:22.429Z,62.76
2023-05-21T06:45:02.475Z,63.52
2023-05-21T06:47:32.733Z,63.41
2023-05-21T06:50:00.293Z,63.39
2023-05-21T06:52:27.865Z,63.05
2023-05-21T06:54:55.549Z,62.76
2023-05-21T06:57:25.145Z,62.67
2023-05-21T06:59:52.886Z,63.29
2023-05-21T07:02:20.607Z,62.72
2023-05-21T07:04:48.590Z,62.77
2023-05-21T07:07:16.161Z,62.63
2023-05-21T07:09:44.380Z,63.30
2023-05-21T07:12:12.161Z,63.38
2023-05-21T07:14:40.243Z,63.89
2023-05-21T07:17:07.878Z,63.75
2023-05-21T07:19:37.066Z,64.08
2023-05-21T07:22:06.045Z,64.11
2023-05-21T07:24:33.821Z,63.59
2023-05-21T07:27:04.624Z,63.37
2023-05-21T07:29:37.215Z,63.46
2023-05-21T07:32:05.034Z,63.33
2023-05-21T07:34:33.211Z,63.08
2023-05-21T07:37:00.960Z,63.16
2023-05-21T07:39:28.848Z,63.08
2023-05-21T07:41:56.430Z,62.50
2023-05-21T07:44:24.575Z,63.25
2023-05-21T07:46:52.267Z,63.32
2023-05-21T07:49:20.168Z,63.48
2023-05-21T07:51:48.962Z,64.68
2023-05-21T07:54:16.968Z,64.26
2023-05-21T07:56:45.969Z,63.91
2023-05-21T07:59:26.090Z,64.13
2023-05-21T08:01:53.755Z,63.89
2023-05-21T08:04:21.450Z,63.86
2023-05-21T08:06:49.142Z,64.12
2023-05-21T08:09:16.796Z,64.06
2023-05-21T08:11:44.962Z,63.85
2023-05-21T08:14:12.711Z,63.66
2023-05-21T08:16:40.560Z,63.15
2023-05-21T08:19:08.217Z,63.34
2023-05-21T08:21:36.874Z,63.50
2023-05-21T08:24:04.513Z,63.79
2023-05-21T08:26:33.917Z,63.70
2023-05-21T08:29:03.071Z,63.26
2023-05-21T08:31:30.775Z,63.68
2023-05-21T08:33:58.904Z,63.20
2023-05-21T08:36:38.324Z,63.97
2023-05-21T08:39:13.366Z,63.81
2023-05-21T08:41:49.618Z,63.12
2023-05-21T08:44:19.311Z,62.85
2023-05-21T08:46:47.207Z,63.36
2023-05-21T08:49:16.146Z,62.77
2023-05-21T08:51:44.553Z,63.46
2023-05-21T08:54:13.514Z,63.97
2023-05-21T08:56:45.761Z,63.44
2023-05-21T08:59:14.172Z,62.87
2023-05-21T09:01:42.444Z,62.33
2023-05-21T09:04:21.647Z,62.94
2023-05-21T09:06:55.154Z,63.07
2023-05-21T09:09:52.920Z,61.10
2023-05-21T09:12:20.897Z,61.67
2023-05-21T09:14:49.378Z,61.19
2023-05-21T09:17:20.422Z,61.21
2023-05-21T09:20:16.756Z,59.94
2023-05-21T09:22:51.550Z,59.88
2023-05-21T09:25:29.460Z,59.16
2023-05-21T09:28:01.228Z,59.13
2023-05-21T09:30:31.136Z,58.82
2023-05-21T09:33:00.570Z,58.26
2023-05-21T09:35:28.428Z,57.81
2023-05-21T09:37:57.606Z,56.73
2023-05-21T09:40:25.353Z,57.52
2023-05-21T09:42:53.958Z,57.80
2023-05-21T09:45:22.697Z,57.95
2023-05-21T09:47:52.743Z,57.80
2023-05-21T09:50:25.826Z,56.90
2023-05-21T09:52:53.625Z,56.58
2023-05-21T09:55:28.586Z,56.64
2023-05-21T09:57:56.336Z,55.77
2023-05-21T10:00:30.537Z,55.76
2023-05-21T10:03:01.032Z,55.54
2023-05-21T10:05:29.495Z,55.90
2023-05-21T10:07:59.877Z,55.69
2023-05-21T10:10:27.979Z,55.48
2023-05-21T10:13:00.873Z,55.53
2023-05-21T10:15:32.132Z,55.87
2023-05-21T10:17:59.868Z,56.83
2023-05-21T10:20:27.426Z,56.26
2023-05-21T10:22:54.941Z,55.16
2023-05-21T10:25:22.438Z,55.35
2023-05-21T10:27:50.064Z,54.50
2023-05-21T10:30:17.734Z,54.13
2023-05-21T10:32:45.562Z,54.34
2023-05-21T10:35:13.820Z,54.54
2023-05-21T10:37:41.994Z,54.63
2023-05-21T10:40:10.151Z,52.36
2023-05-21T10:42:45.604Z,52.55
2023-05-21T10:45:36.868Z,52.11
2023-05-21T10:48:22.693Z,51.51
2023-05-21T10:51:24.115Z,51.91
2023-05-21T10:54:25.755Z,50.88
2023-05-21T10:57:10.255Z,51.21
2023-05-21T10:59:44.062Z,50.87
2023-05-21T11:02:12.879Z,50.16
2023-05-21T11:04:42.608Z,50.80
2023-05-21T11:07:11.211Z,49.45
2023-05-21T11:09:39.002Z,49.50
2023-05-21T11:12:08.199Z,48.53
2023-05-21T11:14:40.632Z,49.17
2023-05-21T11:17:17.537Z,49.94
2023-05-21T11:19:50.882Z,50.35
2023-05-21T11:22:22.335Z,50.32
2023-05-21T11:24:51.778Z,56.04
2023-05-21T11:27:39.256Z,50.02
2023-05-21T11:30:09.375Z,49.33
2023-05-21T11:32:39.154Z,48.77
2023-05-21T11:35:07.205Z,48.74
2023-05-21T11:37:35.390Z,48.04
2023-05-21T11:40:19.697Z,48.91
2023-05-21T11:42:50.003Z,47.70
2023-05-21T11:45:21.746Z,48.74
2023-05-21T11:47:49.806Z,47.93
2023-05-21T11:50:17.748Z,48.57
2023-05-21T11:52:46.198Z,48.32
2023-05-21T11:55:15.812Z,48.18
2023-05-21T11:57:44.923Z,47.15
2023-05-21T12:00:16.836Z,44.66
2023-05-21T12:02:46.657Z,44.39
2023-05-21T12:05:14.435Z,44.81
2023-05-21T12:07:43.222Z,45.16
2023-05-21T12:10:11.468Z,44.42
2023-05-21T12:12:53.333Z,44.74
2023-05-21T12:15:24.383Z,44.83
2023-05-21T12:17:53.295Z,45.58
2023-05-21T12:20:21.108Z,45.62
2023-05-21T12:22:49.692Z,46.46
2023-05-21T12:25:20.670Z,44.71
2023-05-21T12:27:49.829Z,46.02
2023-05-21T12:30:17.373Z,44.83
2023-05-21T12:32:45.687Z,43.76
2023-05-21T12:35:24.626Z,42.86
2023-05-21T12:37:53.014Z,42.64
2023-05-21T12:40:21.027Z,42.38
2023-05-21T12:42:48.738Z,43.68
2023-05-21T12:45:18.793Z,45.01
2023-05-21T12:47:49.023Z,43.35
2023-05-21T12:50:16.779Z,44.30
2023-05-21T12:52:44.361Z,44.18
2023-05-21T12:55:15.677Z,44.27
2023-05-21T12:57:44.020Z,44.94
2023-05-21T13:00:12.113Z,46.47
2023-05-21T13:02:40.911Z,46.87
2023-05-21T13:05:16.423Z,48.14
2023-05-21T13:07:46.888Z,49.88
2023-05-21T13:10:16.743Z,52.12
2023-05-21T13:12:45.284Z,53.76
2023-05-21T13:15:13.000Z,55.22
2023-05-21T13:17:41.085Z,56.68
2023-05-21T13:20:12.820Z,58.21
2023-05-21T13:22:58.792Z,60.77
2023-05-21T13:25:29.820Z,61.39
2023-05-21T13:27:59.152Z,62.54
2023-05-21T13:30:26.935Z,62.74
2023-05-21T13:32:54.990Z,64.09
2023-05-21T13:35:22.714Z,64.36
2023-05-21T13:37:50.311Z,64.97
2023-05-21T13:40:17.880Z,66.06
2023-05-21T13:42:46.828Z,66.61
2023-05-21T13:45:16.373Z,67.58
2023-05-21T13:47:45.124Z,67.70
2023-05-21T13:50:12.892Z,68.55
2023-05-21T13:52:40.941Z,70.40
2023-05-21T13:55:09.149Z,72.48
2023-05-21T13:57:37.211Z,72.57
2023-05-21T14:00:06.031Z,73.15
2023-05-21T14:02:35.450Z,73.44
2023-05-21T14:05:03.128Z,74.27
2023-05-21T14:07:31.115Z,75.06
2023-05-21T14:09:58.613Z,76.15
2023-05-21T14:12:26.956Z,77.67
2023-05-21T14:14:54.864Z,78.48
2023-05-21T14:17:22.785Z,79.34
2023-05-21T14:19:50.707Z,78.98
2023-05-21T14:22:18.909Z,78.04
2023-05-21T14:24:47.072Z,77.07
2023-05-21T14:27:15.978Z,76.85
2023-05-21T14:29:43.565Z,77.02
2023-05-21T14:32:11.146Z,78.42
2023-05-21T14:34:40.421Z,80.74
2023-05-21T14:37:08.072Z,82.18
2023-05-21T14:39:36.025Z,83.05
2023-05-21T14:42:04.946Z,82.20
2023-05-21T14:44:32.810Z,82.42
2023-05-21T14:47:00.599Z,83.03
2023-05-21T14:49:28.207Z,83.79
2023-05-21T14:51:56.154Z,84.77
2023-05-21T14:54:23.738Z,86.46
2023-05-21T14:56:51.291Z,85.98
2023-05-21T14:59:18.869Z,86.17
2023-05-21T15:01:46.558Z,85.83
2023-05-21T15:04:14.323Z,85.66
2023-05-21T15:06:42.175Z,85.42
2023-05-21T15:09:10.111Z,86.88
2023-05-21T15:11:39.850Z,86.98
2023-05-21T15:14:07.539Z,86.54
2023-05-21T15:16:36.056Z,87.28
2023-05-21T15:19:04.141Z,87.79
2023-05-21T15:21:32.715Z,87.87
2023-05-21T15:24:00.462Z,88.42
2023-05-21T15:26:28.278Z,88.73
2023-05-21T15:28:55.896Z,87.49
2023-05-21T15:31:23.483Z,87.85
2023-05-21T15:33:51.059Z,88.36
2023-05-21T15:36:18.550Z,88.13
2023-05-21T15:38:46.300Z,87.66
2023-05-21T15:41:13.709Z,87.34
2023-05-21T15:43:42.299Z,86.70
2023-05-21T15:46:11.277Z,86.77
2023-05-21T15:48:38.984Z,86.79
2023-05-21T15:51:06.403Z,87.49
2023-05-21T15:53:34.348Z,88.62
2023-05-21T15:56:03.318Z,87.12
2023-05-21T15:58:31.441Z,87.13
2023-05-21T16:00:58.952Z,87.64
2023-05-21T16:03:26.767Z,85.93
2023-05-21T16:05:54.350Z,86.23
2023-05-21T16:08:21.780Z,85.77
2023-05-21T16:10:49.136Z,85.21
2023-05-21T16:13:16.863Z,84.64
2023-05-21T16:15:44.785Z,85.51
2023-05-21T16:18:12.573Z,86.33
2023-05-21T16:20:40.199Z,88.17
2023-05-21T16:23:07.709Z,87.99
2023-05-21T16:25:36.542Z,87.75
2023-05-21T16:28:04.535Z,88.22
2023-05-21T16:30:32.150Z,88.80
2023-05-21T16:32:59.689Z,88.93
2023-05-21T16:35:27.478Z,89.32
2023-05-21T16:37:55.096Z,89.16
2023-05-21T16:40:23.112Z,89.49
2023-05-21T16:42:51.411Z,90.29
2023-05-21T16:45:23.367Z,90.69
2023-05-21T16:47:51.389Z,90.69
2023-05-21T16:50:19.939Z,90.90
2023-05-21T16:52:47.440Z,90.88
2023-05-21T16:55:15.258Z,90.57
2023-05-21T16:57:42.761Z,91.28
2023-05-21T17:00:10.783Z,91.63
2023-05-21T17:02:39.636Z,91.14
2023-05-21T17:05:08.047Z,90.30
2023-05-21T17:07:35.806Z,90.29
2023-05-21T17:10:04.941Z,91.53
2023-05-21T17:12:32.900Z,92.14
2023-05-21T17:15:02.204Z,91.72
2023-05-21T17:17:30.291Z,90.63
2023-05-21T17:19:58.199Z,90.80
2023-05-21T17:22:25.968Z,90.45
2023-05-21T17:24:54.019Z,90.95
2023-05-21T17:27:21.425Z,91.45
2023-05-21T17:29:50.275Z,90.75
2023-05-21T17:32:17.744Z,90.40
2023-05-21T17:34:45.172Z,90.62
2023-05-21T17:37:14.146Z,91.33
2023-05-21T17:39:43.852Z,90.68
2023-05-21T17:42:11.555Z,89.92
2023-05-21T17:44:38.961Z,91.52
2023-05-21T17:47:07.020Z,91.70
2023-05-21T17:49:34.966Z,92.28
2023-05-21T17:52:04.569Z,93.05
2023-05-21T17:54:32.058Z,93.17
2023-05-21T17:56:59.672Z,93.90
2023-05-21T17:59:27.190Z,94.17
2023-05-21T18:01:54.633Z,93.83
2023-05-21T18:04:22.661Z,93.42
2023-05-21T18:06:51.611Z,93.74
2023-05-21T18:09:19.087Z,94.17
2023-05-21T18:11:46.829Z,94.05
2023-05-21T18:14:14.707Z,93.72
2023-05-21T18:16:42.647Z,93.33
2023-05-21T18:19:11.354Z,93.56
2023-05-21T18:21:40.324Z,92.12
2023-05-21T18:24:08.219Z,91.62
2023-05-21T18:26:35.721Z,91.89
2023-05-21T18:29:03.206Z,91.66
2023-05-21T18:31:30.848Z,91.83
2023-05-21T18:33:58.298Z,91.89
2023-05-21T18:36:26.713Z,91.53
2023-05-21T18:38:54.212Z,91.58
2023-05-21T18:41:22.480Z,92.48
2023-05-21T18:43:49.922Z,92.82
2023-05-21T18:46:17.550Z,93.00
2023-05-21T18:48:46.372Z,93.25
2023-05-21T18:51:13.784Z,92.95
2023-05-21T18:53:41.459Z,92.84
2023-05-21T18:56:10.335Z,93.65
2023-05-21T18:58:38.665Z,93.68
2023-05-21T19:01:06.530Z,93.97
2023-05-21T19:03:34.013Z,93.92
2023-05-21T19:06:01.517Z,94.08
2023-05-21T19:08:28.941Z,94.00
2023-05-21T19:10:57.181Z,94.31
2023-05-21T19:13:24.841Z,94.19
2023-05-21T19:15:52.874Z,93.98
2023-05-21T19:18:20.425Z,93.68
2023-05-21T19:20:47.887Z,93.39
2023-05-21T19:23:15.420Z,93.09
2023-05-21T19:25:43.024Z,92.93
2023-05-21T19:28:10.545Z,93.14
2023-05-21T19:30:38.479Z,92.80
2023-05-21T19:33:06.407Z,93.46
2023-05-21T19:35:36.149Z,93.52
2023-05-21T19:38:05.420Z,93.37
2023-05-21T19:40:33.537Z,93.35
2023-05-21T19:43:01.070Z,93.02
2023-05-21T19:45:28.815Z,92.99
2023-05-21T19:47:56.859Z,93.51
2023-05-21T19:50:24.697Z,93.77
2023-05-21T19:52:52.225Z,93.72
2023-05-21T19:55:22.815Z,93.34
2023-05-21T19:57:50.446Z,93.24
2023-05-21T20:00:18.382Z,93.31
2023-05-21T20:02:46.785Z,93.43
2023-05-21T20:05:14.725Z,93.82
2023-05-21T20:07:42.423Z,94.00
2023-05-21T20:10:10.061Z,94.37
2023-05-21T20:12:38.983Z,94.36
2023-05-21T20:15:07.137Z,94.38
2023-05-21T20:17:36.006Z,93.48
2023-05-21T20:20:07.453Z,93.57
2023-05-21T20:22:35.235Z,93.76
2023-05-21T20:25:04.195Z,93.25
2023-05-21T20:27:32.090Z,93.02
2023-05-21T20:29:59.581Z,92.17
2023-05-21T20:32:27.908Z,91.52
2023-05-21T20:35:03.408Z,91.01
2023-05-21T20:37:34.435Z,91.69
2023-05-21T20:40:02.005Z,91.36
2023-05-21T20:42:34.292Z,90.86
2023-05-21T20:45:03.192Z,90.72
2023-05-21T20:47:32.049Z,90.53
2023-05-21T20:49:59.757Z,90.43
2023-05-21T20:52:27.535Z,90.98
2023-05-21T20:54:55.336Z,91.61
2023-05-21T20:57:22.863Z,91.30
2023-05-21T20:59:53.669Z,91.72
2023-05-21T21:02:21.731Z,92.16
2023-05-21T21:04:50.683Z,92.08
2023-05-21T21:07:18.457Z,92.07
2023-05-21T21:09:47.045Z,92.79
2023-05-21T21:12:26.087Z,92.32
2023-05-21T21:14:54.809Z,92.71
2023-05-21T21:17:22.419Z,93.02
2023-05-21T21:19:50.032Z,92.34
2023-05-21T21:22:18.618Z,92.81
2023-05-21T21:24:46.156Z,93.00
2023-05-21T21:27:14.346Z,93.09
2023-05-21T21:29:42.022Z,92.70
2023-05-21T21:32:09.466Z,93.08
2023-05-21T21:34:38.297Z,92.56
2023-05-21T21:37:05.981Z,92.21
2023-05-21T21:39:33.387Z,92.01
2023-05-21T21:42:01.122Z,92.58
2023-05-21T21:44:28.810Z,92.66
2023-05-21T21:46:56.169Z,93.13
2023-05-21T21:49:23.571Z,93.29
2023-05-21T21:51:51.365Z,92.91
2023-05-21T21:54:19.085Z,92.67
2023-05-21T21:56:46.427Z,93.30
2023-05-21T21:59:13.840Z,92.90
2023-05-21T22:01:41.961Z,91.61
2023-05-21T22:04:09.557Z,91.69
2023-05-21T22:06:39.137Z,92.40
2023-05-21T22:09:06.944Z,92.35
2023-05-21T22:11:34.603Z,92.30
2023-05-21T22:14:02.573Z,92.53
2023-05-21T22:16:30.366Z,92.77
2023-05-21T22:18:58.904Z,92.36
2023-05-21T22:21:32.791Z,92.74
2023-05-21T22:24:00.256Z,92.40
2023-05-21T22:26:28.027Z,92.84
2023-05-21T22:28:55.801Z,92.64
2023-05-21T22:31:23.315Z,92.70
2023-05-21T22:33:50.830Z,93.24
2023-05-21T22:36:18.398Z,93.82
2023-05-21T22:38:45.892Z,93.34
2023-05-21T22:41:13.649Z,93.04
2023-05-21T22:43:41.476Z,92.79
2023-05-21T22:46:08.928Z,93.48
2023-05-21T22:48:37.403Z,93.15
2023-05-21T22:51:05.568Z,93.55
2023-05-21T22:53:33.502Z,93.89
2023-05-21T22:56:01.163Z,94.61
2023-05-21T22:58:28.686Z,94.95
2023-05-21T23:00:56.232Z,94.98
2023-05-21T23:03:23.988Z,95.03
2023-05-21T23:05:51.508Z,95.18
2023-05-21T23:08:19.156Z,95.08
2023-05-21T23:10:46.876Z,94.94
2023-05-21T23:13:14.401Z,95.09
2023-05-21T23:15:44.021Z,95.56
2023-05-21T23:18:11.790Z,95.85
2023-05-21T23:20:41.265Z,96.19
2023-05-21T23:23:09.893Z,96.29
2023-05-21T23:25:37.513Z,96.63
2023-05-21T23:28:05.083Z,96.40
2023-05-21T23:30:33.075Z,96.12
2023-05-21T23:33:00.714Z,96.00
2023-05-21T23:35:28.183Z,96.03
2023-05-21T23:37:55.994Z,96.23
2023-05-21T23:40:23.442Z,96.03
2023-05-21T23:42:51.061Z,96.09
2023-05-21T23:45:18.580Z,95.90
2023-05-21T23:47:46.580Z,95.77
2023-05-21T23:50:14.082Z,95.59
2023-05-21T23:52:41.640Z,95.63
2023-05-21T23:55:11.553Z,95.81
2023-05-21T23:57:39.190Z,95.83
